sensor_id;sensor_type;location;lat;lon;timestamp;P1;durP1;ratioP1;P2;durP2;ratioP2
14740;SDS011;7462;53.530;9.414;2023-05-10T00:00:52;3.00;;;2.57;;
14740;SDS011;7462;53.530;9.414;2023-05-10T00:03:20;3.93;;;2.63;;
14740;SDS011;7462;53.530;9.414;2023-05-10T00:05:48;6.63;;;2.60;;
14740;SDS011;7462;53.530;9.414;2023-05-10T00:08:16;4.50;;;2.50;;
14740;SDS011;7462;53.530;9.414;2023-05-10T00:10:45;5.10;;;2.63;;
14740;SDS011;7462;53.530;9.414;2023-05-10T00:13:13;3.43;;;2.80;;
14740;SDS011;7462;53.530;9.414;2023-05-10T00:15:42;4.70;;;2.70;;
14740;SDS011;7462;53.530;9.414;2023-05-10T00:18:10;4.57;;;2.67;;
14740;SDS011;7462;53.530;9.414;2023-05-10T00:20:38;3.03;;;2.67;;
14740;SDS011;7462;53.530;9.414;2023-05-10T00:23:06;3.57;;;2.70;;
14740;SDS011;7462;53.530;9.414;2023-05-10T00:25:34;5.13;;;3.37;;
14740;SDS011;7462;53.530;9.414;2023-05-10T00:28:03;5.13;;;3.00;;
14740;SDS011;7462;53.530;9.414;2023-05-10T00:30:31;4.40;;;2.80;;
14740;SDS011;7462;53.530;9.414;2023-05-10T00:33:02;4.43;;;3.03;;
14740;SDS011;7462;53.530;9.414;2023-05-10T00:35:30;5.13;;;3.17;;
14740;SDS011;7462;53.530;9.414;2023-05-10T00:37:58;3.67;;;2.90;;
14740;SDS011;7462;53.530;9.414;2023-05-10T00:40:26;3.00;;;2.70;;
14740;SDS011;7462;53.530;9.414;2023-05-10T00:42:58;3.63;;;2.90;;
14740;SDS011;7462;53.530;9.414;2023-05-10T00:45:27;4.80;;;3.10;;
14740;SDS011;7462;53.530;9.414;2023-05-10T00:47:56;2.87;;;2.60;;
14740;SDS011;7462;53.530;9.414;2023-05-10T00:50:25;4.53;;;3.33;;
14740;SDS011;7462;53.530;9.414;2023-05-10T00:52:54;3.93;;;2.80;;
14740;SDS011;7462;53.530;9.414;2023-05-10T00:55:22;3.97;;;3.00;;
14740;SDS011;7462;53.530;9.414;2023-05-10T00:57:51;2.90;;;2.60;;
14740;SDS011;7462;53.530;9.414;2023-05-10T01:00:20;6.00;;;3.20;;
14740;SDS011;7462;53.530;9.414;2023-05-10T01:02:48;3.27;;;2.80;;
14740;SDS011;7462;53.530;9.414;2023-05-10T01:05:17;3.20;;;2.67;;
14740;SDS011;7462;53.530;9.414;2023-05-10T01:07:47;3.30;;;3.00;;
14740;SDS011;7462;53.530;9.414;2023-05-10T01:10:15;4.20;;;3.10;;
14740;SDS011;7462;53.530;9.414;2023-05-10T01:12:44;5.17;;;3.10;;
14740;SDS011;7462;53.530;9.414;2023-05-10T01:15:14;3.97;;;3.30;;
14740;SDS011;7462;53.530;9.414;2023-05-10T01:17:44;3.33;;;3.00;;
14740;SDS011;7462;53.530;9.414;2023-05-10T01:20:14;4.07;;;3.17;;
14740;SDS011;7462;53.530;9.414;2023-05-10T01:22:54;3.80;;;2.97;;
14740;SDS011;7462;53.530;9.414;2023-05-10T01:29:01;5.47;;;2.83;;
14740;SDS011;7462;53.530;9.414;2023-05-10T01:32:00;3.67;;;2.90;;
14740;SDS011;7462;53.530;9.414;2023-05-10T01:34:44;4.27;;;3.00;;
14740;SDS011;7462;53.530;9.414;2023-05-10T01:37:21;3.80;;;2.93;;
14740;SDS011;7462;53.530;9.414;2023-05-10T01:39:58;3.47;;;2.80;;
14740;SDS011;7462;53.530;9.414;2023-05-10T01:42:31;4.33;;;2.87;;
14740;SDS011;7462;53.530;9.414;2023-05-10T01:45:10;4.10;;;3.70;;
14740;SDS011;7462;53.530;9.414;2023-05-10T01:47:46;4.23;;;2.93;;
14740;SDS011;7462;53.530;9.414;2023-05-10T01:50:22;4.67;;;2.80;;
14740;SDS011;7462;53.530;9.414;2023-05-10T01:52:55;3.10;;;2.80;;
14740;SDS011;7462;53.530;9.414;2023-05-10T01:55:27;4.57;;;3.00;;
14740;SDS011;7462;53.530;9.414;2023-05-10T01:57:58;4.13;;;2.70;;
14740;SDS011;7462;53.530;9.414;2023-05-10T02:00:30;5.27;;;2.87;;
14740;SDS011;7462;53.530;9.414;2023-05-10T02:03:01;3.10;;;2.73;;
14740;SDS011;7462;53.530;9.414;2023-05-10T02:05:33;3.23;;;2.93;;
14740;SDS011;7462;53.530;9.414;2023-05-10T02:08:02;3.43;;;2.90;;
14740;SDS011;7462;53.530;9.414;2023-05-10T02:10:35;3.57;;;2.77;;
14740;SDS011;7462;53.530;9.414;2023-05-10T02:13:05;5.90;;;3.10;;
14740;SDS011;7462;53.530;9.414;2023-05-10T02:15:34;3.57;;;2.97;;
14740;SDS011;7462;53.530;9.414;2023-05-10T02:18:05;6.67;;;3.07;;
14740;SDS011;7462;53.530;9.414;2023-05-10T02:20:34;3.43;;;2.83;;
14740;SDS011;7462;53.530;9.414;2023-05-10T02:23:03;4.60;;;3.03;;
14740;SDS011;7462;53.530;9.414;2023-05-10T02:25:32;4.63;;;3.20;;
14740;SDS011;7462;53.530;9.414;2023-05-10T02:28:01;5.07;;;3.30;;
14740;SDS011;7462;53.530;9.414;2023-05-10T02:30:31;3.43;;;2.87;;
14740;SDS011;7462;53.530;9.414;2023-05-10T02:33:01;4.30;;;3.30;;
14740;SDS011;7462;53.530;9.414;2023-05-10T02:35:33;4.10;;;3.23;;
14740;SDS011;7462;53.530;9.414;2023-05-10T02:38:02;3.63;;;3.20;;
14740;SDS011;7462;53.530;9.414;2023-05-10T02:40:31;5.40;;;3.10;;
14740;SDS011;7462;53.530;9.414;2023-05-10T02:43:01;5.57;;;3.20;;
14740;SDS011;7462;53.530;9.414;2023-05-10T02:45:31;4.90;;;3.27;;
14740;SDS011;7462;53.530;9.414;2023-05-10T02:48:02;3.40;;;3.10;;
14740;SDS011;7462;53.530;9.414;2023-05-10T02:50:33;5.80;;;3.00;;
14740;SDS011;7462;53.530;9.414;2023-05-10T02:53:09;4.30;;;3.77;;
14740;SDS011;7462;53.530;9.414;2023-05-10T02:55:40;5.30;;;3.30;;
14740;SDS011;7462;53.530;9.414;2023-05-10T02:58:09;3.70;;;3.30;;
14740;SDS011;7462;53.530;9.414;2023-05-10T03:00:37;4.13;;;3.53;;
14740;SDS011;7462;53.530;9.414;2023-05-10T03:03:06;4.13;;;3.50;;
14740;SDS011;7462;53.530;9.414;2023-05-10T03:05:36;3.70;;;3.00;;
14740;SDS011;7462;53.530;9.414;2023-05-10T03:08:04;5.03;;;3.30;;
14740;SDS011;7462;53.530;9.414;2023-05-10T03:10:33;6.17;;;3.53;;
14740;SDS011;7462;53.530;9.414;2023-05-10T03:13:10;5.53;;;3.20;;
14740;SDS011;7462;53.530;9.414;2023-05-10T03:15:47;4.77;;;3.30;;
14740;SDS011;7462;53.530;9.414;2023-05-10T03:18:32;3.87;;;3.50;;
14740;SDS011;7462;53.530;9.414;2023-05-10T03:21:10;3.63;;;3.30;;
14740;SDS011;7462;53.530;9.414;2023-05-10T03:23:41;5.00;;;3.67;;
14740;SDS011;7462;53.530;9.414;2023-05-10T03:26:13;4.10;;;3.53;;
14740;SDS011;7462;53.530;9.414;2023-05-10T03:28:47;5.13;;;3.83;;
14740;SDS011;7462;53.530;9.414;2023-05-10T03:31:16;3.80;;;3.40;;
14740;SDS011;7462;53.530;9.414;2023-05-10T03:33:46;3.90;;;3.50;;
14740;SDS011;7462;53.530;9.414;2023-05-10T03:36:20;5.43;;;3.70;;
14740;SDS011;7462;53.530;9.414;2023-05-10T03:38:48;5.73;;;3.40;;
14740;SDS011;7462;53.530;9.414;2023-05-10T03:41:16;5.17;;;3.23;;
14740;SDS011;7462;53.530;9.414;2023-05-10T03:43:44;5.47;;;3.63;;
14740;SDS011;7462;53.530;9.414;2023-05-10T03:46:12;5.87;;;3.60;;
14740;SDS011;7462;53.530;9.414;2023-05-10T03:48:41;5.37;;;3.60;;
14740;SDS011;7462;53.530;9.414;2023-05-10T03:51:09;3.93;;;3.43;;
14740;SDS011;7462;53.530;9.414;2023-05-10T03:53:40;6.03;;;3.50;;
14740;SDS011;7462;53.530;9.414;2023-05-10T03:56:08;3.70;;;3.27;;
14740;SDS011;7462;53.530;9.414;2023-05-10T03:58:36;4.63;;;3.40;;
14740;SDS011;7462;53.530;9.414;2023-05-10T04:01:04;4.37;;;3.60;;
14740;SDS011;7462;53.530;9.414;2023-05-10T04:03:32;4.17;;;3.50;;
14740;SDS011;7462;53.530;9.414;2023-05-10T04:06:02;5.87;;;3.53;;
14740;SDS011;7462;53.530;9.414;2023-05-10T04:08:31;6.73;;;3.70;;
14740;SDS011;7462;53.530;9.414;2023-05-10T04:11:07;4.27;;;3.90;;
14740;SDS011;7462;53.530;9.414;2023-05-10T04:13:36;7.33;;;3.70;;
14740;SDS011;7462;53.530;9.414;2023-05-10T04:16:04;6.50;;;3.87;;
14740;SDS011;7462;53.530;9.414;2023-05-10T04:18:33;4.90;;;3.60;;
14740;SDS011;7462;53.530;9.414;2023-05-10T04:21:01;4.53;;;3.57;;
14740;SDS011;7462;53.530;9.414;2023-05-10T04:23:29;4.77;;;3.77;;
14740;SDS011;7462;53.530;9.414;2023-05-10T04:26:00;6.60;;;3.90;;
14740;SDS011;7462;53.530;9.414;2023-05-10T04:28:29;4.83;;;3.67;;
14740;SDS011;7462;53.530;9.414;2023-05-10T04:31:01;4.63;;;3.83;;
14740;SDS011;7462;53.530;9.414;2023-05-10T04:33:30;5.57;;;4.07;;
14740;SDS011;7462;53.530;9.414;2023-05-10T04:35:59;6.83;;;3.40;;
14740;SDS011;7462;53.530;9.414;2023-05-10T04:38:28;5.53;;;3.50;;
14740;SDS011;7462;53.530;9.414;2023-05-10T04:41:03;4.33;;;3.60;;
14740;SDS011;7462;53.530;9.414;2023-05-10T04:43:34;4.40;;;3.40;;
14740;SDS011;7462;53.530;9.414;2023-05-10T04:46:02;5.77;;;3.73;;
14740;SDS011;7462;53.530;9.414;2023-05-10T04:48:31;5.10;;;3.67;;
14740;SDS011;7462;53.530;9.414;2023-05-10T04:50:59;6.20;;;3.70;;
14740;SDS011;7462;53.530;9.414;2023-05-10T04:53:27;4.60;;;3.80;;
14740;SDS011;7462;53.530;9.414;2023-05-10T04:55:55;5.57;;;3.73;;
14740;SDS011;7462;53.530;9.414;2023-05-10T04:58:24;8.23;;;4.07;;
14740;SDS011;7462;53.530;9.414;2023-05-10T05:00:53;4.00;;;3.70;;
14740;SDS011;7462;53.530;9.414;2023-05-10T05:03:22;4.30;;;3.90;;
14740;SDS011;7462;53.530;9.414;2023-05-10T05:05:50;4.87;;;3.73;;
14740;SDS011;7462;53.530;9.414;2023-05-10T05:08:18;5.77;;;3.67;;
14740;SDS011;7462;53.530;9.414;2023-05-10T05:10:47;5.80;;;4.00;;
14740;SDS011;7462;53.530;9.414;2023-05-10T05:13:16;8.23;;;4.17;;
14740;SDS011;7462;53.530;9.414;2023-05-10T05:15:45;5.07;;;3.40;;
14740;SDS011;7462;53.530;9.414;2023-05-10T05:18:15;4.10;;;3.43;;
14740;SDS011;7462;53.530;9.414;2023-05-10T05:20:43;4.50;;;3.53;;
14740;SDS011;7462;53.530;9.414;2023-05-10T05:23:11;4.13;;;3.67;;
14740;SDS011;7462;53.530;9.414;2023-05-10T05:25:39;5.50;;;4.00;;
14740;SDS011;7462;53.530;9.414;2023-05-10T05:28:08;6.00;;;3.63;;
14740;SDS011;7462;53.530;9.414;2023-05-10T05:30:36;5.57;;;3.43;;
14740;SDS011;7462;53.530;9.414;2023-05-10T05:33:04;4.00;;;3.17;;
14740;SDS011;7462;53.530;9.414;2023-05-10T05:35:34;5.53;;;3.77;;
14740;SDS011;7462;53.530;9.414;2023-05-10T05:38:02;5.33;;;3.50;;
14740;SDS011;7462;53.530;9.414;2023-05-10T05:40:30;4.40;;;3.60;;
14740;SDS011;7462;53.530;9.414;2023-05-10T05:42:58;5.00;;;3.53;;
14740;SDS011;7462;53.530;9.414;2023-05-10T05:45:27;4.30;;;3.90;;
14740;SDS011;7462;53.530;9.414;2023-05-10T05:47:55;4.70;;;3.70;;
14740;SDS011;7462;53.530;9.414;2023-05-10T05:50:23;4.50;;;4.10;;
14740;SDS011;7462;53.530;9.414;2023-05-10T05:52:52;4.63;;;3.70;;
14740;SDS011;7462;53.530;9.414;2023-05-10T05:55:21;5.47;;;3.90;;
14740;SDS011;7462;53.530;9.414;2023-05-10T05:57:50;7.10;;;4.27;;
14740;SDS011;7462;53.530;9.414;2023-05-10T06:00:18;5.07;;;4.00;;
14740;SDS011;7462;53.530;9.414;2023-05-10T06:02:47;6.33;;;3.80;;
14740;SDS011;7462;53.530;9.414;2023-05-10T06:05:15;4.77;;;3.90;;
14740;SDS011;7462;53.530;9.414;2023-05-10T06:07:44;5.23;;;3.87;;
14740;SDS011;7462;53.530;9.414;2023-05-10T06:10:13;5.67;;;3.73;;
14740;SDS011;7462;53.530;9.414;2023-05-10T06:12:41;7.80;;;4.33;;
14740;SDS011;7462;53.530;9.414;2023-05-10T06:15:10;6.33;;;4.03;;
14740;SDS011;7462;53.530;9.414;2023-05-10T06:17:39;5.10;;;3.70;;
14740;SDS011;7462;53.530;9.414;2023-05-10T06:20:07;4.80;;;4.30;;
14740;SDS011;7462;53.530;9.414;2023-05-10T06:22:36;4.90;;;3.83;;
14740;SDS011;7462;53.530;9.414;2023-05-10T06:25:04;5.37;;;3.73;;
14740;SDS011;7462;53.530;9.414;2023-05-10T06:27:34;5.63;;;4.03;;
14740;SDS011;7462;53.530;9.414;2023-05-10T06:30:03;5.90;;;4.00;;
14740;SDS011;7462;53.530;9.414;2023-05-10T06:32:39;5.40;;;4.00;;
14740;SDS011;7462;53.530;9.414;2023-05-10T06:35:07;4.40;;;4.00;;
14740;SDS011;7462;53.530;9.414;2023-05-10T06:37:36;7.60;;;3.93;;
14740;SDS011;7462;53.530;9.414;2023-05-10T06:40:05;4.93;;;4.33;;
14740;SDS011;7462;53.530;9.414;2023-05-10T06:42:35;5.37;;;3.90;;
14740;SDS011;7462;53.530;9.414;2023-05-10T06:45:04;5.87;;;4.33;;
14740;SDS011;7462;53.530;9.414;2023-05-10T06:47:33;4.97;;;4.10;;
14740;SDS011;7462;53.530;9.414;2023-05-10T06:50:05;5.30;;;3.73;;
14740;SDS011;7462;53.530;9.414;2023-05-10T06:52:34;7.20;;;4.03;;
14740;SDS011;7462;53.530;9.414;2023-05-10T06:55:02;5.60;;;3.93;;
14740;SDS011;7462;53.530;9.414;2023-05-10T06:57:30;5.20;;;4.00;;
14740;SDS011;7462;53.530;9.414;2023-05-10T07:00:00;5.13;;;3.63;;
14740;SDS011;7462;53.530;9.414;2023-05-10T07:02:30;5.60;;;4.07;;
14740;SDS011;7462;53.530;9.414;2023-05-10T07:04:59;5.47;;;4.10;;
14740;SDS011;7462;53.530;9.414;2023-05-10T07:07:29;4.30;;;3.90;;
14740;SDS011;7462;53.530;9.414;2023-05-10T07:09:57;4.80;;;4.27;;
14740;SDS011;7462;53.530;9.414;2023-05-10T07:12:25;6.37;;;4.30;;
14740;SDS011;7462;53.530;9.414;2023-05-10T07:14:53;4.50;;;4.10;;
14740;SDS011;7462;53.530;9.414;2023-05-10T07:17:23;5.03;;;4.53;;
14740;SDS011;7462;53.530;9.414;2023-05-10T07:19:51;4.50;;;4.07;;
14740;SDS011;7462;53.530;9.414;2023-05-10T07:22:19;7.87;;;4.40;;
14740;SDS011;7462;53.530;9.414;2023-05-10T07:24:47;4.10;;;3.80;;
14740;SDS011;7462;53.530;9.414;2023-05-10T07:27:15;5.27;;;4.40;;
14740;SDS011;7462;53.530;9.414;2023-05-10T07:29:43;6.73;;;4.40;;
14740;SDS011;7462;53.530;9.414;2023-05-10T07:32:12;5.10;;;4.60;;
14740;SDS011;7462;53.530;9.414;2023-05-10T07:34:41;6.13;;;4.80;;
14740;SDS011;7462;53.530;9.414;2023-05-10T07:37:10;7.07;;;4.57;;
14740;SDS011;7462;53.530;9.414;2023-05-10T07:39:38;5.60;;;5.00;;
14740;SDS011;7462;53.530;9.414;2023-05-10T07:42:06;5.47;;;4.73;;
14740;SDS011;7462;53.530;9.414;2023-05-10T07:44:34;4.87;;;4.33;;
14740;SDS011;7462;53.530;9.414;2023-05-10T07:47:02;5.30;;;4.80;;
14740;SDS011;7462;53.530;9.414;2023-05-10T07:49:30;5.20;;;4.70;;
14740;SDS011;7462;53.530;9.414;2023-05-10T07:52:00;6.03;;;4.87;;
14740;SDS011;7462;53.530;9.414;2023-05-10T07:54:28;5.73;;;5.10;;
14740;SDS011;7462;53.530;9.414;2023-05-10T07:56:56;6.57;;;4.63;;
14740;SDS011;7462;53.530;9.414;2023-05-10T07:59:24;5.83;;;5.00;;
14740;SDS011;7462;53.530;9.414;2023-05-10T08:01:52;6.57;;;5.27;;
14740;SDS011;7462;53.530;9.414;2023-05-10T08:04:20;6.83;;;5.30;;
14740;SDS011;7462;53.530;9.414;2023-05-10T08:06:48;7.33;;;6.03;;
14740;SDS011;7462;53.530;9.414;2023-05-10T08:09:18;6.27;;;5.53;;
14740;SDS011;7462;53.530;9.414;2023-05-10T08:11:50;6.00;;;5.50;;
14740;SDS011;7462;53.530;9.414;2023-05-10T08:14:18;7.70;;;7.00;;
14740;SDS011;7462;53.530;9.414;2023-05-10T08:16:46;7.40;;;6.13;;
14740;SDS011;7462;53.530;9.414;2023-05-10T08:19:14;7.30;;;6.57;;
14740;SDS011;7462;53.530;9.414;2023-05-10T08:21:45;7.83;;;6.10;;
14740;SDS011;7462;53.530;9.414;2023-05-10T08:24:13;7.80;;;6.53;;
14740;SDS011;7462;53.530;9.414;2023-05-10T08:26:43;8.30;;;6.80;;
14740;SDS011;7462;53.530;9.414;2023-05-10T08:29:11;7.27;;;6.37;;
14740;SDS011;7462;53.530;9.414;2023-05-10T08:31:39;7.33;;;6.63;;
14740;SDS011;7462;53.530;9.414;2023-05-10T08:34:07;7.10;;;6.40;;
14740;SDS011;7462;53.530;9.414;2023-05-10T08:36:35;7.50;;;6.80;;
14740;SDS011;7462;53.530;9.414;2023-05-10T08:39:03;7.27;;;6.57;;
14740;SDS011;7462;53.530;9.414;2023-05-10T08:41:43;8.20;;;7.10;;
14740;SDS011;7462;53.530;9.414;2023-05-10T08:44:13;7.87;;;7.13;;
14740;SDS011;7462;53.530;9.414;2023-05-10T08:46:42;7.30;;;6.60;;
14740;SDS011;7462;53.530;9.414;2023-05-10T08:49:13;9.30;;;7.20;;
14740;SDS011;7462;53.530;9.414;2023-05-10T08:51:47;8.20;;;7.40;;
14740;SDS011;7462;53.530;9.414;2023-05-10T08:54:19;8.97;;;7.40;;
14740;SDS011;7462;53.530;9.414;2023-05-10T08:56:49;8.23;;;7.20;;
14740;SDS011;7462;53.530;9.414;2023-05-10T08:59:18;8.53;;;7.40;;
14740;SDS011;7462;53.530;9.414;2023-05-10T09:01:46;8.00;;;7.20;;
14740;SDS011;7462;53.530;9.414;2023-05-10T09:04:16;9.60;;;7.73;;
14740;SDS011;7462;53.530;9.414;2023-05-10T09:06:44;8.63;;;7.73;;
14740;SDS011;7462;53.530;9.414;2023-05-10T09:09:12;8.87;;;7.97;;
14740;SDS011;7462;53.530;9.414;2023-05-10T09:11:42;8.70;;;7.80;;
14740;SDS011;7462;53.530;9.414;2023-05-10T09:14:12;9.20;;;7.73;;
14740;SDS011;7462;53.530;9.414;2023-05-10T09:16:42;8.47;;;7.67;;
14740;SDS011;7462;53.530;9.414;2023-05-10T09:19:10;8.17;;;7.37;;
14740;SDS011;7462;53.530;9.414;2023-05-10T09:21:38;8.50;;;7.70;;
14740;SDS011;7462;53.530;9.414;2023-05-10T09:24:07;8.43;;;6.93;;
14740;SDS011;7462;53.530;9.414;2023-05-10T09:26:35;8.20;;;7.37;;
14740;SDS011;7462;53.530;9.414;2023-05-10T09:29:15;8.33;;;7.47;;
14740;SDS011;7462;53.530;9.414;2023-05-10T09:31:44;8.30;;;7.50;;
14740;SDS011;7462;53.530;9.414;2023-05-10T09:34:17;8.57;;;7.77;;
14740;SDS011;7462;53.530;9.414;2023-05-10T09:36:51;9.10;;;7.47;;
14740;SDS011;7462;53.530;9.414;2023-05-10T09:39:20;8.53;;;7.60;;
14740;SDS011;7462;53.530;9.414;2023-05-10T09:41:57;11.23;;;8.33;;
14740;SDS011;7462;53.530;9.414;2023-05-10T09:44:27;10.27;;;8.13;;
14740;SDS011;7462;53.530;9.414;2023-05-10T09:46:55;8.73;;;7.83;;
14740;SDS011;7462;53.530;9.414;2023-05-10T09:49:23;10.50;;;8.30;;
14740;SDS011;7462;53.530;9.414;2023-05-10T09:51:59;8.67;;;7.87;;
14740;SDS011;7462;53.530;9.414;2023-05-10T09:54:29;8.80;;;7.90;;
14740;SDS011;7462;53.530;9.414;2023-05-10T09:56:57;8.80;;;7.70;;
14740;SDS011;7462;53.530;9.414;2023-05-10T09:59:27;10.60;;;8.17;;
14740;SDS011;7462;53.530;9.414;2023-05-10T10:01:56;8.93;;;8.03;;
14740;SDS011;7462;53.530;9.414;2023-05-10T10:04:27;8.77;;;7.90;;
14740;SDS011;7462;53.530;9.414;2023-05-10T10:06:59;11.17;;;7.90;;
14740;SDS011;7462;53.530;9.414;2023-05-10T10:09:28;8.50;;;7.70;;
14740;SDS011;7462;53.530;9.414;2023-05-10T10:11:56;9.03;;;8.13;;
14740;SDS011;7462;53.530;9.414;2023-05-10T10:14:26;8.70;;;7.90;;
14740;SDS011;7462;53.530;9.414;2023-05-10T10:16:55;9.03;;;8.13;;
14740;SDS011;7462;53.530;9.414;2023-05-10T10:19:33;9.23;;;8.33;;
14740;SDS011;7462;53.530;9.414;2023-05-10T10:22:03;9.13;;;8.23;;
14740;SDS011;7462;53.530;9.414;2023-05-10T10:24:32;9.90;;;8.97;;
14740;SDS011;7462;53.530;9.414;2023-05-10T10:27:02;10.07;;;8.40;;
14740;SDS011;7462;53.530;9.414;2023-05-10T10:29:44;9.57;;;8.73;;
14740;SDS011;7462;53.530;9.414;2023-05-10T10:32:21;9.37;;;8.53;;
14740;SDS011;7462;53.530;9.414;2023-05-10T10:34:55;10.17;;;9.27;;
14740;SDS011;7462;53.530;9.414;2023-05-10T10:37:23;9.83;;;8.87;;
14740;SDS011;7462;53.530;9.414;2023-05-10T10:40:23;9.43;;;8.63;;
14740;SDS011;7462;53.530;9.414;2023-05-10T10:42:52;8.93;;;8.03;;
14740;SDS011;7462;53.530;9.414;2023-05-10T10:45:23;9.67;;;8.80;;
14740;SDS011;7462;53.530;9.414;2023-05-10T10:50:55;10.57;;;9.60;;
14740;SDS011;7462;53.530;9.414;2023-05-10T10:53:25;8.93;;;8.03;;
14740;SDS011;7462;53.530;9.414;2023-05-10T10:56:02;10.60;;;9.00;;
14740;SDS011;7462;53.530;9.414;2023-05-10T10:58:34;10.03;;;9.00;;
14740;SDS011;7462;53.530;9.414;2023-05-10T11:01:10;8.90;;;8.10;;
14740;SDS011;7462;53.530;9.414;2023-05-10T11:03:40;9.23;;;8.40;;
14740;SDS011;7462;53.530;9.414;2023-05-10T11:06:09;9.60;;;8.33;;
14740;SDS011;7462;53.530;9.414;2023-05-10T11:08:41;8.50;;;7.80;;
14740;SDS011;7462;53.530;9.414;2023-05-10T11:11:14;8.90;;;8.17;;
14740;SDS011;7462;53.530;9.414;2023-05-10T11:13:43;9.23;;;8.43;;
14740;SDS011;7462;53.530;9.414;2023-05-10T11:16:18;9.80;;;8.97;;
14740;SDS011;7462;53.530;9.414;2023-05-10T11:18:54;10.23;;;9.33;;
14740;SDS011;7462;53.530;9.414;2023-05-10T11:21:28;8.80;;;8.00;;
14740;SDS011;7462;53.530;9.414;2023-05-10T11:23:56;8.07;;;7.27;;
14740;SDS011;7462;53.530;9.414;2023-05-10T11:26:30;10.37;;;9.47;;
14740;SDS011;7462;53.530;9.414;2023-05-10T11:28:59;9.87;;;9.00;;
14740;SDS011;7462;53.530;9.414;2023-05-10T11:31:29;9.10;;;8.30;;
14740;SDS011;7462;53.530;9.414;2023-05-10T11:33:58;9.43;;;8.63;;
14740;SDS011;7462;53.530;9.414;2023-05-10T11:36:29;11.93;;;10.87;;
14740;SDS011;7462;53.530;9.414;2023-05-10T11:39:02;10.20;;;9.30;;
14740;SDS011;7462;53.530;9.414;2023-05-10T11:41:31;10.27;;;9.30;;
14740;SDS011;7462;53.530;9.414;2023-05-10T11:44:00;11.17;;;10.27;;
14740;SDS011;7462;53.530;9.414;2023-05-10T11:46:30;9.83;;;8.97;;
14740;SDS011;7462;53.530;9.414;2023-05-10T11:48:59;10.77;;;9.77;;
14740;SDS011;7462;53.530;9.414;2023-05-10T11:51:33;9.43;;;8.63;;
14740;SDS011;7462;53.530;9.414;2023-05-10T11:54:05;10.77;;;9.87;;
14740;SDS011;7462;53.530;9.414;2023-05-10T11:56:34;10.03;;;9.13;;
14740;SDS011;7462;53.530;9.414;2023-05-10T11:59:03;10.43;;;9.57;;
14740;SDS011;7462;53.530;9.414;2023-05-10T12:01:33;10.50;;;9.50;;
14740;SDS011;7462;53.530;9.414;2023-05-10T12:04:02;11.30;;;10.30;;
14740;SDS011;7462;53.530;9.414;2023-05-10T12:06:31;11.20;;;10.20;;
14740;SDS011;7462;53.530;9.414;2023-05-10T12:09:04;11.20;;;10.30;;
14740;SDS011;7462;53.530;9.414;2023-05-10T12:11:36;10.63;;;9.73;;
14740;SDS011;7462;53.530;9.414;2023-05-10T12:14:09;11.70;;;10.70;;
14740;SDS011;7462;53.530;9.414;2023-05-10T12:16:38;10.83;;;9.83;;
14740;SDS011;7462;53.530;9.414;2023-05-10T12:19:07;11.00;;;10.00;;
14740;SDS011;7462;53.530;9.414;2023-05-10T12:21:36;11.23;;;10.33;;
14740;SDS011;7462;53.530;9.414;2023-05-10T12:24:05;11.53;;;10.57;;
14740;SDS011;7462;53.530;9.414;2023-05-10T12:26:34;11.60;;;10.63;;
14740;SDS011;7462;53.530;9.414;2023-05-10T12:29:12;10.40;;;9.40;;
14740;SDS011;7462;53.530;9.414;2023-05-10T12:31:53;11.07;;;9.97;;
14740;SDS011;7462;53.530;9.414;2023-05-10T12:34:23;10.00;;;9.10;;
14740;SDS011;7462;53.530;9.414;2023-05-10T12:36:52;10.30;;;9.40;;
14740;SDS011;7462;53.530;9.414;2023-05-10T12:39:20;10.53;;;9.63;;
14740;SDS011;7462;53.530;9.414;2023-05-10T12:41:48;10.70;;;9.70;;
14740;SDS011;7462;53.530;9.414;2023-05-10T12:44:17;9.80;;;9.00;;
14740;SDS011;7462;53.530;9.414;2023-05-10T12:46:45;10.27;;;9.40;;
14740;SDS011;7462;53.530;9.414;2023-05-10T12:49:15;10.27;;;9.47;;
14740;SDS011;7462;53.530;9.414;2023-05-10T12:51:45;10.57;;;9.50;;
14740;SDS011;7462;53.530;9.414;2023-05-10T12:54:13;10.37;;;9.30;;
14740;SDS011;7462;53.530;9.414;2023-05-10T12:56:41;10.17;;;9.37;;
14740;SDS011;7462;53.530;9.414;2023-05-10T12:59:10;10.10;;;9.17;;
14740;SDS011;7462;53.530;9.414;2023-05-10T13:01:38;11.80;;;10.60;;
14740;SDS011;7462;53.530;9.414;2023-05-10T13:04:06;10.83;;;9.93;;
14740;SDS011;7462;53.530;9.414;2023-05-10T13:06:37;12.33;;;11.10;;
14740;SDS011;7462;53.530;9.414;2023-05-10T13:09:05;11.60;;;10.70;;
14740;SDS011;7462;53.530;9.414;2023-05-10T13:11:33;11.93;;;10.93;;
14740;SDS011;7462;53.530;9.414;2023-05-10T13:14:01;12.43;;;11.33;;
14740;SDS011;7462;53.530;9.414;2023-05-10T13:16:30;12.07;;;11.03;;
14740;SDS011;7462;53.530;9.414;2023-05-10T13:19:02;14.00;;;12.90;;
14740;SDS011;7462;53.530;9.414;2023-05-10T13:21:30;13.03;;;11.83;;
14740;SDS011;7462;53.530;9.414;2023-05-10T13:23:59;11.53;;;10.53;;
14740;SDS011;7462;53.530;9.414;2023-05-10T13:26:28;14.17;;;12.87;;
14740;SDS011;7462;53.530;9.414;2023-05-10T13:28:56;12.37;;;11.27;;
14740;SDS011;7462;53.530;9.414;2023-05-10T13:31:24;12.83;;;11.63;;
14740;SDS011;7462;53.530;9.414;2023-05-10T13:33:52;12.77;;;11.77;;
14740;SDS011;7462;53.530;9.414;2023-05-10T13:36:20;11.90;;;10.90;;
14740;SDS011;7462;53.530;9.414;2023-05-10T13:38:49;11.83;;;10.83;;
14740;SDS011;7462;53.530;9.414;2023-05-10T13:41:18;12.53;;;11.43;;
14740;SDS011;7462;53.530;9.414;2023-05-10T13:43:47;13.17;;;11.97;;
14740;SDS011;7462;53.530;9.414;2023-05-10T13:46:15;12.63;;;11.53;;
14740;SDS011;7462;53.530;9.414;2023-05-10T13:48:43;12.20;;;11.20;;
14740;SDS011;7462;53.530;9.414;2023-05-10T13:51:11;13.37;;;12.07;;
14740;SDS011;7462;53.530;9.414;2023-05-10T13:53:40;13.53;;;12.37;;
14740;SDS011;7462;53.530;9.414;2023-05-10T13:56:08;13.90;;;12.60;;
14740;SDS011;7462;53.530;9.414;2023-05-10T13:58:37;12.40;;;11.27;;
14740;SDS011;7462;53.530;9.414;2023-05-10T14:01:05;12.77;;;11.70;;
14740;SDS011;7462;53.530;9.414;2023-05-10T14:03:34;12.23;;;11.13;;
14740;SDS011;7462;53.530;9.414;2023-05-10T14:06:02;13.83;;;12.53;;
14740;SDS011;7462;53.530;9.414;2023-05-10T14:08:30;11.67;;;10.67;;
14740;SDS011;7462;53.530;9.414;2023-05-10T14:10:58;12.80;;;11.70;;
14740;SDS011;7462;53.530;9.414;2023-05-10T14:13:26;14.10;;;12.87;;
14740;SDS011;7462;53.530;9.414;2023-05-10T14:15:56;12.10;;;10.90;;
14740;SDS011;7462;53.530;9.414;2023-05-10T14:18:26;12.30;;;11.20;;
14740;SDS011;7462;53.530;9.414;2023-05-10T14:20:54;11.67;;;10.57;;
14740;SDS011;7462;53.530;9.414;2023-05-10T14:23:23;13.13;;;11.93;;
14740;SDS011;7462;53.530;9.414;2023-05-10T14:25:52;11.40;;;10.50;;
14740;SDS011;7462;53.530;9.414;2023-05-10T14:28:20;12.57;;;11.47;;
14740;SDS011;7462;53.530;9.414;2023-05-10T14:30:49;12.53;;;11.43;;
14740;SDS011;7462;53.530;9.414;2023-05-10T14:33:18;14.93;;;13.53;;
14740;SDS011;7462;53.530;9.414;2023-05-10T14:35:47;13.93;;;12.73;;
14740;SDS011;7462;53.530;9.414;2023-05-10T14:38:15;13.17;;;11.97;;
14740;SDS011;7462;53.530;9.414;2023-05-10T14:40:43;11.03;;;10.13;;
14740;SDS011;7462;53.530;9.414;2023-05-10T14:43:11;10.80;;;9.87;;
14740;SDS011;7462;53.530;9.414;2023-05-10T14:45:39;9.77;;;8.87;;
14740;SDS011;7462;53.530;9.414;2023-05-10T14:48:08;10.50;;;9.60;;
14740;SDS011;7462;53.530;9.414;2023-05-10T14:50:42;9.83;;;8.97;;
14740;SDS011;7462;53.530;9.414;2023-05-10T14:53:11;10.00;;;9.10;;
14740;SDS011;7462;53.530;9.414;2023-05-10T14:55:39;9.20;;;8.40;;
14740;SDS011;7462;53.530;9.414;2023-05-10T14:58:07;10.03;;;9.13;;
14740;SDS011;7462;53.530;9.414;2023-05-10T15:00:35;9.50;;;8.70;;
14740;SDS011;7462;53.530;9.414;2023-05-10T15:03:04;9.97;;;9.07;;
14740;SDS011;7462;53.530;9.414;2023-05-10T15:05:33;9.50;;;8.70;;
14740;SDS011;7462;53.530;9.414;2023-05-10T15:08:02;9.10;;;8.40;;
14740;SDS011;7462;53.530;9.414;2023-05-10T15:10:31;9.37;;;8.57;;
14740;SDS011;7462;53.530;9.414;2023-05-10T15:13:00;7.77;;;7.17;;
14740;SDS011;7462;53.530;9.414;2023-05-10T15:15:28;8.60;;;7.90;;
14740;SDS011;7462;53.530;9.414;2023-05-10T15:17:56;8.47;;;7.77;;